Overview Statistics Trail Chart Weather Telemetry Raw packets
 

This is the latest recevied telemetry packets stored in our database for station/object HB9PLM-64. If no packets are shown the sender has not sent any telemetry packets the latest 10 day(s).

Telemetry packets is used to share measurements like repeteater parameters, battery voltage, radiation readings (or any other measurements).

<< 1 2 3 4 >>
Time Press* Temp.in* Hum* eGAS* Temp.out*
1788593082 971.1 hPa 26.5 C deg 52.7 % 498 - 0 C deg
1788593082 971.1 hPa 26.5 C deg 52.7 % 498 - 0 C deg
1788591271 970.5 hPa 25.6 C deg 54.3 % 435 - 0 C deg
1788591271 970.5 hPa 25.6 C deg 54.3 % 435 - 0 C deg
1788589456 970.6 hPa 24.4 C deg 58.8 % 376 - 0 C deg
1788589426 970.5 hPa 24.3 C deg 58.9 % 378 - 0 C deg
1788588798 970.6 hPa 24.2 C deg 59.2 % 398 - 0 C deg
1788588798 970.6 hPa 24.2 C deg 59.2 % 398 - 0 C deg
1788588764 970.6 hPa 24.2 C deg 59.2 % 398 - 0 C deg
1788588666 970.5 hPa 24.1 C deg 59.2 % 404 - 0 C deg
1788588591 970.6 hPa 24.1 C deg 59.2 % 404 - 0 C deg
1788588321 970.6 hPa 24.2 C deg 58.9 % 416 - 0 C deg
1788588321 970.6 hPa 24.2 C deg 58.9 % 416 - 0 C deg
1788588220 970.6 hPa 24.2 C deg 59.1 % 415 - 0 C deg
1788588219 970.6 hPa 24.2 C deg 59.1 % 415 - 0 C deg
1788586816 970.7 hPa 24.4 C deg 57.5 % 485 - 0 C deg
1788586816 970.7 hPa 24.4 C deg 57.5 % 485 - 0 C deg
1788586565 970.7 hPa 24.3 C deg 57.7 % 495 - 0 C deg
1788586564 970.7 hPa 24.3 C deg 57.7 % 495 - 0 C deg
1788586541 970.7 hPa 24.3 C deg 57.7 % 495 - 0 C deg
1788586541 970.7 hPa 24.3 C deg 57.7 % 495 - 0 C deg
1788586472 970.7 hPa 24.2 C deg 57.7 % 490 - 0 C deg
1788586472 970.7 hPa 24.2 C deg 57.7 % 490 - 0 C deg
1788586297 970.6 hPa 24.1 C deg 58.3 % 497 - 0 C deg
1788586224 970.6 hPa 24.1 C deg 58.5 % 497 - 0 C deg
*Used Equation Coefficients:
Press: 0, 1, 0
Temp.in: 0, 1, 0
Hum: 0, 1, 0
eGAS: 0, 1, 0
Temp.out: 0, 1, 0

  • The parameter names for the analog channels will be Value1, Value2, Value3 (up to Value5) if station has not sent a PARAM-packet that specifies the parameter names for each analog channel.
  • Each analog value is a decimal number between 000 and 255 (according to APRS specifications). The receiver use the telemetry equation coefficientsto to restore the original sensor values. If no EQNS-packet with equation coefficients is sent we will show the values as is (this corresponds to the equation coefficients a=0, b=1 and c=0).
    The sent equation coefficients is used in the equation: a * value2 + b * value + c.
  • The units for the analog values will not be shown if station has not sent a UNIT-packet specifying what unit's to use.
  • The parameter names for the digital bits will be Bit1, Bit2, Bit3 (up to Bit8) if station has not sent a PARAM-packet that specifies the parameter names for each digital bit.
  • All bit labels will be named "On" if station has not sent a UNIT-packet that specifies the label of each bit.
  • A bit is considered to be On when the bit is 1 if station has not sent a BITS-packet that specifies another "Bit sense" (a BITS-packet specify the state of the bits that match the BIT labels)